Unicom:                    122.8

AWOS:                  118.275

Elevation           1458’ MSL

TPA:                   2500’ MSL

06/24:         5003’ L   75’ W

PAPI:       06/Left     24/Left

(Operate lights on unicom freq.)

Traffic Pattern: Left

Beacon: Sunset to Sunrise

Windsock: yes, lighted

Segmented Circle: No

 

Cleveland Center: 126.72/291.65

FSS: Altoona

[Source: ADDS]
METAR
KFKL 201621Z AUTO 20004KT 10SM BKN029 BKN037 27/20 A3015 RMK AO2 =
KFKL 201129Z 2012/2112 00000KT 1/2SM FG BKN001 FM201300 VRB03KT P6SM SCT200 FM201800 18005KT P6SM BKN050 FM210600 21005KT P6SM VCSH BKN080
TAF
KFKL 201129Z 2012/2112 00000KT 1/2SM FG BKN001 FM201300 VRB03KT P6SM SCT200 FM201800 18005KT P6SM BKN050 FM210600 21005KT P6SM VCSH BKN080 =
[Source: ADDS]
METAR
KDUJ 201601Z AUTO VRB04KT 10SM SCT028 SCT034 26/18 A3017 RMK AO2 T02560183 =
KDUJ 201149Z 2012/2112 VRB03KT P6SM SCT200 TEMPO 2012/2013 3SM BR FM201800 19005KT P6SM BKN050 FM210700 18005KT P6SM VCSH BKN100
TAF
KDUJ 201149Z 2012/2112 VRB03KT P6SM SCT200 TEMPO 2012/2013 3SM BR FM201800 19005KT P6SM BKN050 FM210700 18005KT P6SM VCSH BKN100 =

Nearby Overnight Accommodations.

Park Inn by Radisson

45 Holiday Inn Rd

Clarion, PA 16214

Phone # (814) 226-8850

Park Inn by Radisson

45 Holiday Inn Rd Clarion, PA 16214 Phone # (814) 226-8850

Microtel

121 North Point Drive

Clarion, PA 16214

Phone # (814) 227-2223

Microtel

121 North Point Drive Clarion, PA 16214 Phone # (814) 227-2223

Hampton Inn and Suites

4 Hospital Drive

Clarion, PA 16214

Phone # (814) 226-4444

Hampton Inn & Suites

4 Hospital Drive Clarion, PA 16214 Phone # (814) 226-4444

Comfort Inn

129 Dolby Street

Clarion, PA 16214

Phone # (814) 226-5230

Comfort Inn

129 Dolby Street Clarion, PA 16214 Phone # (814) 226-5230

Quality Inn

24 United Drive

Clarion, PA 16214 

Phone # (814) 226-8682 


Quality Inn

24 United Drive Clarion, PA 16214 Phone # (814) 226-8682

Holiday Inn Express

325 Perkins Road

Clarion, PA 16214

Phone (814) 223-4010


Holiday Inn Express

325 Perkins Road Clarion, PA 16214 Phone (814) 223-4010

Super 8 Motel

135 Hotel Road

Clarion, PA 16214

Phone # (800) 536-9326

Super 8 Motel

135 Hotel Road Clarion, PA 16214 Phone # (800) 536-9326


Transportation.

Enterprise

545 South Fifth Avenue

Clarion, PA 16214

Phone # (814) 227-1284

Enterprise

545 South Fifth Avenue Clarion, PA 16214 Phone # (814) 227-1284

Clarion County Taxi, Inc.

East End Road

Clarion County Taxi, Inc.

Shippenville, PA 16254

Phone # (814) 226-8635

 *cash, check, debit


Choice Cab Co.

Clarion, PA 16214

Phone # (814) 221- 4992

 *cash only